Latest Weather Observations for Cape Ferguson

IDQ60801

Issued at 7:35 pm EST Sunday 21 September 2014 (issued every 30 minutes, with the page automatically refreshed every 10 minutes)

About weather observations | Map of weather stations | Latest weather observations for QLD | Other Formats
Station Details ID: 032182 Name: CAPE FERGUSON NTC AWS Lat: -19.28 Lon: 147.06 Height: 0.0 m
Data from the previous 72 hours. | See also: Recent months for locations in Queensland
Date/Time
EST
Temp
°C
App
Temp
°C
Dew
Point
Rel
Hum
%
Delta-T
°C
Wind Press
QNH
hPa
Press
MSL
hPa
Rain
since 9 am
mm
Dir
 
Spd
km/h
Gust
km/h
Spd
kts
Gust
kts
21/07:30pm 23.8 - - - - E 30 35 16 19 1018.4 1018.4 -
21/07:00pm 23.9 - - - - E 32 37 17 20 1017.9 1017.9 -
21/06:30pm 23.6 - - - - E 32 39 17 21 1017.6 1017.6 -
21/06:00pm 23.7 - - - - E 33 41 18 22 1017.1 1017.1 -
21/05:30pm 23.6 - - - - E 30 35 16 19 1017.3 1017.3 -
21/05:00pm 23.6 - - - - E 30 37 16 20 1017.3 1017.3 -
21/04:30pm 23.7 - - - - E 28 32 15 17 1017.2 1017.2 -
21/04:00pm 23.8 - - - - E 24 30 13 16 1017.0 1017.0 -
21/03:30pm 23.9 - - - - E 24 28 13 15 1017.2 1017.2 -
21/03:00pm 23.9 - - - - E 26 32 14 17 1017.3 1017.3 -
21/02:30pm 23.8 - - - - E 28 32 15 17 1017.5 1017.5 -
21/02:00pm 23.8 - - - - E 28 32 15 17 1017.6 1017.6 -
21/01:30pm 23.8 - - - - E 28 32 15 17 1017.6 1017.6 -
21/01:00pm 23.8 - - - - E 28 32 15 17 1017.9 1017.9 -
21/12:30pm 23.8 - - - - E 24 30 13 16 1017.9 1017.9 -
21/12:00pm 24.0 - - - - E 22 26 12 14 1018.4 1018.4 -
21/11:30am 23.9 - - - - E 26 30 14 16 1018.7 1018.7 -
21/11:00am 23.9 - - - - E 24 30 13 16 1018.9 1018.9 -
21/10:30am 24.0 - - - - E 28 35 15 19 1019.0 1019.0 -
21/10:00am 23.7 - - - - E 28 33 15 18 1019.1 1019.1 -
21/09:30am 23.7 - - - - E 22 26 12 14 1019.1 1019.1 -
21/09:00am 23.6 - - - - E 24 28 13 15 1019.1 1019.1 -
21/08:30am 23.6 - - - - E 22 28 12 15 1018.8 1018.8 -
21/08:00am 23.5 - - - - E 22 26 12 14 1018.5 1018.5 -
21/07:30am 23.5 - - - - E 24 30 13 16 1018.1 1018.1 -
21/07:00am 23.4 - - - - E 22 30 12 16 1017.9 1017.9 -
21/06:30am 23.4 - - - - E 22 28 12 15 1017.4 1017.4 -
21/06:00am 23.5 - - - - E 22 26 12 14 1017.2 1017.2 -
21/05:30am 23.3 - - - - E 20 26 11 14 1016.9 1016.9 -
21/05:00am 23.4 - - - - E 20 24 11 13 1016.7 1016.7 -
21/04:30am 23.3 - - - - E 24 28 13 15 1016.4 1016.4 -
21/04:00am 23.2 - - - - E 20 26 11 14 1016.1 1016.1 -
21/03:30am 23.2 - - - - E 24 28 13 15 1016.0 1016.0 -
21/03:00am 23.3 - - - - E 20 26 11 14 1016.0 1016.0 -
21/02:30am 23.5 - - - - E 15 20 8 11 1016.2 1016.2 -
21/02:00am 23.5 - - - - E 19 22 10 12 1016.7 1016.7 -
21/01:30am 23.6 - - - - E 20 26 11 14 1017.2 1017.2 -
21/01:00am 23.7 - - - - E 22 26 12 14 1017.6 1017.6 -
21/12:30am 23.9 - - - - E 19 24 10 13 1017.7 1017.7 -
21/12:00am 23.7 - - - - E 20 24 11 13 1018.0 1018.0 -
 
Date/Time
EST
Temp
°C
App
Temp
°C
Dew
Point
Rel
Hum
%
Delta-T
°C
Wind Press
QNH
hPa
Press
MSL
hPa
Rain
since 9 am
mm
Dir
 
Spd
km/h
Gust
km/h
Spd
kts
Gust
kts
20/11:30pm 23.7 - - - - E 20 26 11 14 1018.0 1018.0 -
20/11:00pm 23.8 - - - - E 20 26 11 14 1018.0 1018.0 -
20/10:30pm 23.6 - - - - ENE 22 24 12 13 1018.2 1018.2 -
20/10:00pm 23.7 - - - - E 22 26 12 14 1018.2 1018.2 -
20/09:30pm 23.7 - - - - ENE 22 26 12 14 1017.9 1017.9 -
20/09:00pm 23.8 - - - - ENE 22 26 12 14 1017.8 1017.8 -
20/08:30pm 23.8 - - - - ENE 19 20 10 11 1017.4 1017.4 -
20/08:00pm 23.9 - - - - ENE 17 20 9 11 1017.1 1017.1 -
20/07:30pm 23.9 - - - - ENE 11 19 6 10 1016.6 1016.6 -
20/07:00pm 23.8 - - - - ENE 7 15 4 8 1016.1 1016.1 -
20/06:30pm 23.7 - - - - ENE 7 17 4 9 1015.5 1015.5 -
20/06:00pm 23.8 - - - - ENE 7 15 4 8 1014.8 1014.8 -
20/05:30pm 23.9 - - - - ENE 9 20 5 11 1014.2 1014.2 -
20/05:00pm 23.8 - - - - E 7 22 4 12 1014.0 1014.0 -
20/04:30pm 23.9 - - - - ENE 9 20 5 11 1013.6 1013.6 -
20/04:00pm 24.0 - - - - NE 11 24 6 13 1013.3 1013.3 -
20/03:30pm 24.0 - - - - ENE 13 24 7 13 1013.4 1013.4 -
20/03:00pm 23.9 - - - - NE 11 22 6 12 1013.5 1013.5 -
20/02:30pm 23.9 - - - - NE 11 22 6 12 1013.8 1013.8 -
20/02:00pm 23.9 - - - - NE 9 19 5 10 1014.2 1014.2 -
20/01:30pm 23.8 - - - - ENE 11 22 6 12 1014.6 1014.6 -
20/01:00pm 23.8 - - - - NE 11 20 6 11 1015.2 1015.2 -
20/12:30pm 23.8 - - - - ENE 11 22 6 12 1015.7 1015.7 -
20/12:00pm 23.6 - - - - ENE 13 22 7 12 1016.4 1016.4 -
20/11:30am 23.2 - - - - ENE 13 17 7 9 1016.9 1016.9 -
20/11:00am 23.0 - - - - ENE 13 15 7 8 1017.4 1017.4 -
20/10:30am 22.9 - - - - ESE 7 11 4 6 1017.8 1017.8 -
20/10:00am 22.8 - - - - ESE 7 11 4 6 1018.1 1018.1 -
20/09:30am 22.5 - - - - ESE 9 11 5 6 1018.5 1018.5 -
20/09:00am 22.2 - - - - SE 7 9 4 5 1018.6 1018.6 -
20/08:30am 21.9 - - - - SE 9 13 5 7 1018.5 1018.5 -
20/08:00am 21.9 - - - - SSE 4 7 2 4 1018.1 1018.1 -
20/07:30am 21.5 - - - - W 2 4 1 2 1017.8 1017.8 -
20/07:00am 20.7 - - - - WNW 6 7 3 4 1017.4 1017.4 -
20/06:30am 20.6 - - - - W 6 7 3 4 1017.2 1017.2 -
20/06:00am 20.5 - - - - WNW 4 6 2 3 1016.8 1016.8 -
20/05:30am 20.4 - - - - NW 4 7 2 4 1016.5 1016.5 -
20/05:00am 20.4 - - - - WNW 4 6 2 3 1016.2 1016.2 -
20/04:30am 21.0 - - - - NW 4 7 2 4 1015.9 1015.9 -
20/04:00am 21.3 - - - - W 2 6 1 3 1015.8 1015.8 -
20/03:30am 20.9 - - - - WNW 4 6 2 3 1016.1 1016.1 -
20/03:00am 21.3 - - - - NW 2 7 1 4 1016.2 1016.2 -
20/02:30am 22.7 - - - - NE 2 6 1 3 1016.3 1016.3 -
20/02:00am 22.8 - - - - ENE 4 9 2 5 1016.6 1016.6 -
20/01:30am 22.9 - - - - ENE 11 17 6 9 1016.9 1016.9 -
20/01:00am 22.9 - - - - ENE 15 19 8 10 1017.3 1017.3 -
20/12:30am 22.9 - - - - ENE 13 19 7 10 1017.5 1017.5 -
20/12:00am 22.9 - - - - ENE 17 20 9 11 1017.8 1017.8 -
 
Date/Time
EST
Temp
°C
App
Temp
°C
Dew
Point
Rel
Hum
%
Delta-T
°C
Wind Press
QNH
hPa
Press
MSL
hPa
Rain
since 9 am
mm
Dir
 
Spd
km/h
Gust
km/h
Spd
kts
Gust
kts
19/11:30pm 22.8 - - - - ENE 15 19 8 10 1017.8 1017.8 -
19/11:00pm 22.9 - - - - ENE 15 19 8 10 1017.7 1017.7 -
19/10:30pm 22.9 - - - - ENE 17 20 9 11 1017.6 1017.6 -
19/10:00pm 23.0 - - - - ENE 15 19 8 10 1017.9 1017.9 -
19/09:30pm 22.9 - - - - ENE 15 19 8 10 1017.8 1017.8 -
19/09:00pm 23.1 - - - - ENE 15 20 8 11 1017.8 1017.8 -
19/08:30pm 23.1 - - - - ENE 15 20 8 11 1017.5 1017.5 -
19/08:00pm 23.0 - - - - ENE 13 19 7 10 1017.2 1017.2 -
19/07:30pm 23.0 - - - - ENE 9 19 5 10 1016.7 1016.7 -
19/07:00pm 23.0 - - - - ENE 9 17 5 9 1016.4 1016.4 -
19/06:30pm 23.1 - - - - ENE 11 17 6 9 1015.9 1015.9 -
19/06:00pm 23.0 - - - - ENE 13 17 7 9 1015.7 1015.7 -
19/05:30pm 23.0 - - - - ENE 15 19 8 10 1015.5 1015.5 -
19/05:00pm 23.1 - - - - ENE 13 19 7 10 1015.4 1015.4 -
19/04:30pm 23.0 - - - - ENE 13 17 7 9 1015.2 1015.2 -
19/04:00pm 23.0 - - - - ENE 15 19 8 10 1015.2 1015.2 -
19/03:30pm 23.1 - - - - ENE 11 19 6 10 1015.2 1015.2 -
19/03:00pm 23.5 - - - - ENE 11 17 6 9 1015.4 1015.4 -
19/02:30pm 23.5 - - - - ENE 9 17 5 9 1015.7 1015.7 -
19/02:00pm 23.4 - - - - ENE 9 19 5 10 1015.9 1015.9 -
19/01:30pm 22.9 - - - - ENE 11 17 6 9 1016.3 1016.3 -
19/01:00pm 23.6 - - - - ENE 9 17 5 9 1016.7 1016.7 -
19/12:30pm 22.9 - - - - E 9 13 5 7 1017.3 1017.3 -
19/12:00pm 22.9 - - - - ESE 7 11 4 6 1017.6 1017.6 -
19/11:30am 22.9 - - - - ESE 7 9 4 5 1018.2 1018.2 -
19/11:00am 22.8 - - - - ESE 7 11 4 6 1018.9 1018.9 -
19/10:30am 22.4 - - - - ESE 7 11 4 6 1019.2 1019.2 -
19/10:00am 22.3 - - - - ESE 7 9 4 5 1019.5 1019.5 -
19/09:30am 22.2 - - - - ESE 7 11 4 6 1019.6 1019.6 -
19/09:00am 22.1 - - - - ESE 9 15 5 8 1019.6 1019.6 -
19/08:30am 21.9 - - - - ESE 11 15 6 8 1019.5 1019.5 -
19/08:00am 21.9 - - - - SE 11 15 6 8 1019.1 1019.1 -
19/07:30am 21.9 - - - - SE 11 15 6 8 1018.6 1018.6 -
19/07:00am 22.0 - - - - SE 13 17 7 9 1018.3 1018.3 -
19/06:30am 21.7 - - - - SE 15 17 8 9 1017.8 1017.8 -
19/06:00am 21.8 - - - - SE 15 19 8 10 1017.5 1017.5 -
19/05:30am 22.4 - - - - SE 13 20 7 11 1017.2 1017.2 -
19/05:00am 22.6 - - - - ESE 15 17 8 9 1016.7 1016.7 -
19/04:30am 22.6 - - - - E 15 17 8 9 1016.6 1016.6 -
19/04:00am 22.7 - - - - E 13 17 7 9 1016.4 1016.4 -
19/03:30am 22.5 - - - - E 11 17 6 9 1016.3 1016.3 -
19/03:00am 22.6 - - - - E 13 17 7 9 1016.5 1016.5 -
19/02:30am 22.8 - - - - E 13 15 7 8 1016.7 1016.7 -
19/02:00am 22.8 - - - - E 11 15 6 8 1017.0 1017.0 -
19/01:30am 22.8 - - - - E 13 15 7 8 1017.2 1017.2 -
19/01:00am 22.9 - - - - E 13 17 7 9 1017.5 1017.5 -
19/12:30am 23.1 - - - - E 13 19 7 10 1017.6 1017.6 -
19/12:00am 23.2 - - - - E 15 19 8 10 1017.7 1017.7 -
 
Date/Time
EST
Temp
°C
App
Temp
°C
Dew
Point
Rel
Hum
%
Delta-T
°C
Wind Press
QNH
hPa
Press
MSL
hPa
Rain
since 9 am
mm
Dir
 
Spd
km/h
Gust
km/h
Spd
kts
Gust
kts
18/11:30pm 23.4 - - - - E 15 19 8 10 1017.8 1017.8 -
18/11:00pm 23.4 - - - - E 15 19 8 10 1017.8 1017.8 -
18/10:30pm 23.8 - - - - E 15 17 8 9 1017.6 1017.6 -
18/10:00pm 24.0 - - - - E 13 17 7 9 1017.4 1017.4 -
18/09:30pm 23.8 - - - - ENE 7 15 4 8 1017.5 1017.5 -
18/09:00pm 22.1 - - - - WNW 2 4 1 2 1017.1 1017.1 -
18/08:30pm 23.2 - - - - N 2 6 1 3 1016.8 1016.8 -
18/08:00pm 23.4 - - - - NW 2 6 1 3 1016.4 1016.4 -

Other Formats:

Comma delimited format used in spreadsheet applications
http://www.bom.gov.au/fwo/IDQ60801/IDQ60801.94297.axf

JavaScript Object Notation format (JSON) in row-major order
http://www.bom.gov.au/fwo/IDQ60801/IDQ60801.94297.json